Time;durP1;ratioP1;P1;durP2;ratioP2;P2;SDS_P1;SDS_P2;PMS_P1;PMS_P2;Temp;Humidity;BMP_temperature;BMP_pressure;BME280_temperature;BME280_humidity;BME280_pressure;Samples;Min_cycle;Max_cycle;Signal;HPM_P1;HPM_P2
2024/02/01 00:00:35;;;;;;;35.38;19.23;;;8.70;99.90;;;;;;5072558;28;20519;-91
2024/02/01 00:03:00;;;;;;;35.13;20.80;;;8.70;99.90;;;;;;5080591;28;20450;-91
2024/02/01 00:05:26;;;;;;;38.67;19.73;;;8.70;99.90;;;;;;5059120;28;20029;-90
2024/02/01 00:07:51;;;;;;;38.72;20.95;;;8.60;99.90;;;;;;5080886;28;20021;-91
2024/02/01 00:10:17;;;;;;;31.63;19.05;;;8.60;99.90;;;;;;5081051;28;20035;-91
2024/02/01 00:12:43;;;;;;;34.47;19.23;;;8.60;99.90;;;;;;5091051;28;20031;-92
2024/02/01 00:15:09;;;;;;;35.45;19.80;;;8.60;99.90;;;;;;5079642;28;20541;-91
2024/02/01 00:17:35;;;;;;;32.78;18.70;;;8.60;99.90;;;;;;5079932;28;20020;-92
2024/02/01 00:20:00;;;;;;;28.95;16.45;;;8.60;99.90;;;;;;5084208;28;20028;-92
2024/02/01 00:22:26;;;;;;;35.78;17.38;;;8.60;99.90;;;;;;5093410;28;20085;-91
2024/02/01 00:24:53;;;;;;;26.02;15.88;;;8.60;99.90;;;;;;5091813;28;20485;-92
2024/02/01 00:27:19;;;;;;;28.05;16.52;;;8.60;99.90;;;;;;5078788;28;20103;-89
2024/02/01 00:29:45;;;;;;;30.13;17.17;;;8.60;99.90;;;;;;5079971;28;20492;-91
2024/02/01 00:32:11;;;;;;;27.33;16.30;;;8.50;99.90;;;;;;5057646;28;20117;-92
2024/02/01 00:34:42;;;;;;;30.20;17.25;;;8.50;99.90;;;;;;5076321;28;20402;-90
2024/02/01 00:37:07;;;;;;;28.63;16.00;;;8.40;99.90;;;;;;5082202;28;20078;-91
2024/02/01 00:39:33;;;;;;;28.08;15.38;;;8.40;99.90;;;;;;5079643;28;20024;-92
2024/02/01 00:41:58;;;;;;;27.67;15.82;;;8.40;99.90;;;;;;5071724;28;20103;-92
2024/02/01 00:44:24;;;;;;;28.85;13.85;;;8.30;99.90;;;;;;5077134;28;20364;-91
2024/02/01 00:46:50;;;;;;;18.00;10.85;;;8.30;99.90;;;;;;5081644;28;20031;-92
2024/02/01 00:49:15;;;;;;;20.02;9.60;;;8.40;99.90;;;;;;5080937;28;20024;-91
2024/02/01 00:51:41;;;;;;;17.60;9.60;;;8.50;99.90;;;;;;5076754;28;20031;-93
2024/02/01 00:54:07;;;;;;;15.57;10.05;;;8.60;99.90;;;;;;5079671;28;20021;-93
2024/02/01 00:56:32;;;;;;;13.02;7.22;;;8.70;99.90;;;;;;5079446;28;20032;-94
2024/02/01 00:58:58;;;;;;;12.40;7.80;;;8.90;99.90;;;;;;5073515;28;20108;-91
2024/02/01 01:01:23;;;;;;;15.05;8.02;;;8.90;99.90;;;;;;5081672;28;20133;-91
2024/02/01 01:03:49;;;;;;;13.50;7.78;;;8.90;99.90;;;;;;5078918;28;20027;-92
2024/02/01 01:06:15;;;;;;;12.57;7.10;;;9.00;99.00;;;;;;5086467;28;20054;-91
2024/02/01 01:08:40;;;;;;;11.57;6.60;;;9.00;99.40;;;;;;5080976;28;20032;-91
2024/02/01 01:11:06;;;;;;;15.02;8.10;;;8.90;99.40;;;;;;5077308;28;20043;-90
2024/02/01 01:13:31;;;;;;;13.23;5.93;;;9.00;98.90;;;;;;5055873;28;20363;-91
2024/02/01 01:15:57;;;;;;;12.52;6.40;;;9.00;98.40;;;;;;5076911;28;20359;-90
2024/02/01 01:18:23;;;;;;;11.93;6.95;;;9.00;98.10;;;;;;5053110;28;20025;-92
2024/02/01 01:20:48;;;;;;;9.77;6.38;;;9.00;97.70;;;;;;5079908;28;20426;-92
2024/02/01 01:23:14;;;;;;;8.98;5.30;;;9.00;98.50;;;;;;5090060;28;20027;-92
2024/02/01 01:25:40;;;;;;;12.20;6.82;;;9.00;98.20;;;;;;5086275;28;20080;-92
2024/02/01 01:28:05;;;;;;;10.95;6.63;;;9.10;97.70;;;;;;5083074;28;20024;-94
2024/02/01 01:30:31;;;;;;;12.23;5.95;;;9.00;98.20;;;;;;5064115;28;20020;-93
2024/02/01 01:32:57;;;;;;;10.27;6.47;;;9.00;98.90;;;;;;5085793;28;20027;-90
2024/02/01 01:35:22;;;;;;;10.80;5.93;;;8.90;98.60;;;;;;5083267;28;20028;-92
2024/02/01 01:37:48;;;;;;;10.70;6.38;;;8.90;98.40;;;;;;5088323;28;20086;-92
2024/02/01 01:40:14;;;;;;;11.13;5.70;;;8.80;98.50;;;;;;5072502;28;20029;-93
2024/02/01 01:42:44;;;;;;;11.45;8.07;;;8.90;98.70;;;;;;5083042;28;20253;-92
2024/02/01 01:45:10;;;;;;;14.18;6.30;;;8.80;99.30;;;;;;5080477;28;20012;-91
2024/02/01 01:47:35;;;;;;;11.07;6.22;;;8.80;99.40;;;;;;5078999;28;20055;-95
2024/02/01 01:50:01;;;;;;;15.30;6.32;;;8.70;99.30;;;;;;5086508;28;20471;-92
2024/02/01 01:52:29;;;;;;;11.55;6.25;;;8.70;99.90;;;;;;5060223;28;20028;-93
2024/02/01 01:54:58;;;;;;;13.73;6.32;;;8.70;99.90;;;;;;5080338;28;20107;-91
2024/02/01 01:57:27;;;;;;;8.55;6.25;;;8.70;99.90;;;;;;5074473;28;20104;-93
2024/02/01 01:59:55;;;;;;;14.80;6.15;;;8.70;99.90;;;;;;5065147;28;20537;-93
2024/02/01 02:02:21;;;;;;;10.15;6.15;;;8.70;99.90;;;;;;5074638;28;20035;-92
2024/02/01 02:04:51;;;;;;;11.32;6.10;;;8.60;99.90;;;;;;5081449;28;20116;-91
2024/02/01 02:07:16;;;;;;;11.50;6.13;;;8.60;99.90;;;;;;5076520;28;20024;-92
2024/02/01 02:09:42;;;;;;;9.30;5.13;;;8.60;99.90;;;;;;5075852;28;20025;-92
2024/02/01 02:12:10;;;;;;;11.13;4.85;;;8.50;99.90;;;;;;5082475;28;20028;-91
2024/02/01 02:14:36;;;;;;;9.50;5.05;;;8.50;99.90;;;;;;5064110;28;20032;-92
2024/02/01 02:17:03;;;;;;;10.80;4.20;;;8.60;99.90;;;;;;5082359;28;20033;-91
2024/02/01 02:19:29;;;;;;;8.18;4.57;;;8.70;99.30;;;;;;5084225;28;20032;-92
2024/02/01 02:21:54;;;;;;;12.32;5.28;;;8.70;98.80;;;;;;5071222;28;20020;-92
2024/02/01 02:24:21;;;;;;;10.68;5.82;;;8.70;99.40;;;;;;5056473;28;20017;-92
2024/02/01 02:26:48;;;;;;;11.00;6.20;;;8.60;99.50;;;;;;5065946;28;20024;-92
2024/02/01 02:29:15;;;;;;;8.90;5.50;;;8.70;98.20;;;;;;5081725;28;20052;-93
2024/02/01 02:31:47;;;;;;;8.23;6.25;;;8.70;98.50;;;;;;5082358;28;20021;-91
2024/02/01 02:34:13;;;;;;;8.63;4.75;;;8.70;98.40;;;;;;5073505;28;20158;-91
2024/02/01 02:36:39;;;;;;;10.00;5.55;;;8.70;98.80;;;;;;5080271;28;20494;-91
2024/02/01 02:39:05;;;;;;;10.60;5.85;;;8.70;99.20;;;;;;5079815;28;20398;-95
2024/02/01 02:41:31;;;;;;;10.75;5.53;;;8.60;99.40;;;;;;5081035;28;20394;-94
2024/02/01 02:43:57;;;;;;;11.40;5.93;;;8.70;99.70;;;;;;5084434;28;20050;-92
2024/02/01 02:46:25;;;;;;;19.27;6.45;;;8.60;99.90;;;;;;5080768;28;20056;-90
2024/02/01 02:48:51;;;;;;;11.05;6.32;;;8.60;99.90;;;;;;5057087;28;20517;-92
2024/02/01 02:51:17;;;;;;;9.20;5.00;;;8.60;99.90;;;;;;5087041;28;20025;-91
2024/02/01 02:53:43;;;;;;;11.35;5.50;;;8.60;99.70;;;;;;5080565;28;20028;-94
2024/02/01 02:56:09;;;;;;;8.63;4.50;;;8.60;99.20;;;;;;5082539;28;20043;-92
2024/02/01 02:58:38;;;;;;;8.10;4.75;;;8.70;98.60;;;;;;5082521;28;20115;-93
2024/02/01 03:01:08;;;;;;;8.02;4.32;;;8.60;98.00;;;;;;5084506;28;20087;-91
2024/02/01 03:03:40;;;;;;;13.15;5.28;;;8.60;97.20;;;;;;5067434;28;20028;-91
2024/02/01 03:06:07;;;;;;;6.60;4.15;;;8.60;97.50;;;;;;5077888;28;20081;-92
2024/02/01 03:08:32;;;;;;;9.93;4.80;;;8.60;97.90;;;;;;5052202;28;20402;-92
2024/02/01 03:10:58;;;;;;;6.55;4.45;;;8.50;97.50;;;;;;5080275;28;20035;-92
2024/02/01 03:13:24;;;;;;;7.65;5.40;;;8.60;97.90;;;;;;5080938;28;20020;-92
2024/02/01 03:15:49;;;;;;;8.23;4.18;;;8.50;97.50;;;;;;5079843;28;20024;-92
2024/02/01 03:18:15;;;;;;;6.85;3.28;;;8.50;98.10;;;;;;5081534;28;20058;-92
2024/02/01 03:20:43;;;;;;;5.97;3.05;;;8.50;96.90;;;;;;5079295;28;20025;-91
2024/02/01 03:23:10;;;;;;;7.03;3.65;;;8.50;96.20;;;;;;5053647;28;20033;-92
2024/02/01 03:25:39;;;;;;;8.15;4.25;;;8.40;96.90;;;;;;5079002;28;20038;-91
2024/02/01 03:28:05;;;;;;;5.57;3.35;;;8.40;96.20;;;;;;5073149;28;20029;-92
2024/02/01 03:30:33;;;;;;;5.25;3.10;;;8.40;96.00;;;;;;5079569;28;20032;-91
2024/02/01 03:33:02;;;;;;;8.20;3.22;;;8.40;96.70;;;;;;5063346;28;20028;-93
2024/02/01 03:35:31;;;;;;;4.88;3.42;;;8.40;96.60;;;;;;5079013;28;20051;-92
2024/02/01 03:38:00;;;;;;;4.70;3.08;;;8.40;96.10;;;;;;5075197;28;20030;-90
2024/02/01 03:40:26;;;;;;;6.15;2.97;;;8.40;96.50;;;;;;5080536;28;20029;-92
2024/02/01 03:42:53;;;;;;;6.05;3.00;;;8.40;96.10;;;;;;5061041;28;20051;-90
2024/02/01 03:45:19;;;;;;;5.85;2.50;;;8.40;96.20;;;;;;5071900;28;20024;-92
2024/02/01 03:47:46;;;;;;;5.75;3.13;;;8.40;96.60;;;;;;5081946;28;20028;-92
2024/02/01 03:50:13;;;;;;;6.63;3.58;;;8.40;96.50;;;;;;5078388;28;20027;-91
2024/02/01 03:52:45;;;;;;;7.72;2.58;;;8.40;96.30;;;;;;5081084;28;20027;-93
2024/02/01 03:55:17;;;;;;;6.47;3.63;;;8.40;96.30;;;;;;5074666;28;20028;-92
2024/02/01 03:57:47;;;;;;;4.50;2.83;;;8.30;96.90;;;;;;5080533;28;20479;-92
2024/02/01 04:00:24;;;;;;;7.07;3.10;;;8.30;96.80;;;;;;5082710;28;20047;-91
2024/02/01 04:02:56;;;;;;;4.60;2.85;;;8.40;97.10;;;;;;5063178;28;20096;-91
2024/02/01 04:05:27;;;;;;;3.97;2.40;;;8.40;97.10;;;;;;5057009;28;20031;-90
2024/02/01 04:07:53;;;;;;;7.05;3.67;;;8.30;97.10;;;;;;5085429;28;20029;-90
2024/02/01 04:10:19;;;;;;;6.47;3.35;;;8.40;96.90;;;;;;5081469;28;20470;-91
2024/02/01 04:12:45;;;;;;;6.07;3.13;;;8.40;97.20;;;;;;5080638;28;20122;-91
2024/02/01 04:15:11;;;;;;;5.32;3.28;;;8.40;97.50;;;;;;5079726;28;20134;-89
2024/02/01 04:17:37;;;;;;;4.13;3.17;;;8.40;97.60;;;;;;5078507;28;20035;-92
2024/02/01 04:20:05;;;;;;;5.43;3.30;;;8.40;97.90;;;;;;5052298;28;20050;-90
2024/02/01 04:22:33;;;;;;;8.18;3.97;;;8.40;97.80;;;;;;5086702;28;20028;-92
2024/02/01 04:24:59;;;;;;;5.32;3.47;;;8.40;97.90;;;;;;5078361;28;20020;-89
2024/02/01 04:27:25;;;;;;;6.55;3.75;;;8.40;98.10;;;;;;5082203;28;20028;-91
2024/02/01 04:29:51;;;;;;;7.70;4.30;;;8.40;98.20;;;;;;5079801;28;20029;-92
2024/02/01 04:32:16;;;;;;;6.25;3.60;;;8.40;98.30;;;;;;5080282;28;20028;-91
2024/02/01 04:34:42;;;;;;;6.43;3.47;;;8.40;98.60;;;;;;5063701;28;20089;-92
2024/02/01 04:37:12;;;;;;;7.63;3.65;;;8.40;98.60;;;;;;5082213;28;20074;-92
2024/02/01 04:39:37;;;;;;;9.20;4.65;;;8.40;99.20;;;;;;5074725;28;20025;-93
2024/02/01 04:42:15;;;;;;;7.80;4.05;;;8.40;99.30;;;;;;5062081;28;20108;-92
2024/02/01 04:44:42;;;;;;;6.88;3.47;;;8.50;99.20;;;;;;5062002;28;20021;-91
2024/02/01 04:47:08;;;;;;;5.20;2.88;;;8.50;99.20;;;;;;5061054;28;20048;-92
2024/02/01 04:49:34;;;;;;;6.50;3.60;;;8.50;99.10;;;;;;5079272;28;20029;-92
2024/02/01 04:52:00;;;;;;;8.30;3.67;;;8.50;99.90;;;;;;5080578;28;20499;-92
2024/02/01 04:54:27;;;;;;;6.72;3.28;;;8.50;99.40;;;;;;5066803;28;20040;-91
2024/02/01 04:56:54;;;;;;;6.97;3.45;;;8.50;99.80;;;;;;5064561;28;20028;-94
2024/02/01 04:59:20;;;;;;;6.63;4.07;;;8.50;99.90;;;;;;5065999;28;20210;-93
2024/02/01 05:01:46;;;;;;;7.57;3.63;;;8.50;99.90;;;;;;5086255;28;20486;-93
2024/02/01 05:04:13;;;;;;;6.50;3.78;;;8.60;99.90;;;;;;5089308;28;20046;-91
2024/02/01 05:06:42;;;;;;;5.25;3.13;;;8.50;99.90;;;;;;5048569;28;20037;-93
2024/02/01 05:09:23;;;;;;;4.30;2.80;;;8.50;99.90;;;;;;5077483;28;20024;-90
2024/02/01 05:11:55;;;;;;;5.57;3.10;;;8.60;99.90;;;;;;5051039;28;20033;-93
2024/02/01 05:14:21;;;;;;;6.15;2.80;;;8.60;99.90;;;;;;5083183;28;20061;-92
2024/02/01 05:16:50;;;;;;;4.45;2.47;;;8.50;99.90;;;;;;5063809;28;20032;-90
2024/02/01 05:19:16;;;;;;;5.43;3.08;;;8.50;99.90;;;;;;5062988;28;20097;-91
2024/02/01 05:21:42;;;;;;;6.30;3.92;;;8.40;99.90;;;;;;5081089;28;20108;-91
2024/02/01 05:24:08;;;;;;;6.22;3.53;;;8.40;99.90;;;;;;5085337;28;20093;-92
2024/02/01 05:26:37;;;;;;;6.75;4.63;;;8.20;99.90;;;;;;5083163;28;20027;-90
2024/02/01 05:29:04;;;;;;;10.25;4.75;;;8.20;99.90;;;;;;5080573;28;20048;-91
2024/02/01 05:31:30;;;;;;;8.40;4.30;;;8.10;99.90;;;;;;5081803;28;20025;-91
2024/02/01 05:33:56;;;;;;;7.95;4.38;;;8.10;99.90;;;;;;5056155;28;20199;-91
2024/02/01 05:36:22;;;;;;;10.32;4.93;;;8.00;99.90;;;;;;5082360;28;20024;-91
2024/02/01 05:38:47;;;;;;;9.43;4.10;;;7.90;99.90;;;;;;5079583;28;20036;-90
2024/02/01 05:41:13;;;;;;;7.10;3.80;;;7.80;99.90;;;;;;5079213;28;20383;-91
2024/02/01 05:43:39;;;;;;;8.50;3.80;;;7.80;99.90;;;;;;5059984;28;20020;-92
2024/02/01 05:46:14;;;;;;;7.68;4.60;;;7.80;99.90;;;;;;5089036;28;20031;-91
2024/02/01 05:48:43;;;;;;;5.78;4.22;;;7.80;99.90;;;;;;5058503;28;20024;-89
2024/02/01 05:51:09;;;;;;;11.90;4.90;;;7.80;99.90;;;;;;5043750;28;20088;-90
2024/02/01 05:53:35;;;;;;;12.18;4.13;;;7.70;99.90;;;;;;5059766;28;20070;-90
2024/02/01 05:56:01;;;;;;;7.80;3.85;;;7.70;99.90;;;;;;5054380;28;20017;-90
2024/02/01 05:58:27;;;;;;;9.95;4.63;;;7.70;99.90;;;;;;5076299;28;20028;-91
2024/02/01 06:00:53;;;;;;;12.25;4.50;;;7.70;99.90;;;;;;5078560;28;20387;-92
2024/02/01 06:03:19;;;;;;;11.82;5.03;;;7.60;99.90;;;;;;5064732;28;20036;-91
2024/02/01 06:05:48;;;;;;;7.97;4.55;;;7.60;99.90;;;;;;5084016;28;20035;-91
2024/02/01 06:08:18;;;;;;;9.02;5.88;;;7.60;99.90;;;;;;5058757;28;20490;-89
2024/02/01 06:10:45;;;;;;;8.15;4.65;;;7.60;99.90;;;;;;5060155;28;20035;-90
2024/02/01 06:13:11;;;;;;;8.82;4.57;;;7.60;99.90;;;;;;5063099;28;20023;-91
2024/02/01 06:15:37;;;;;;;10.55;5.63;;;7.50;99.90;;;;;;5076118;28;20052;-89
2024/02/01 06:18:04;;;;;;;9.15;5.70;;;7.50;99.90;;;;;;5067736;28;20052;-93
2024/02/01 06:20:30;;;;;;;13.02;4.70;;;7.50;99.90;;;;;;5055017;28;20057;-91
2024/02/01 06:22:57;;;;;;;9.25;5.55;;;7.50;99.90;;;;;;5089471;28;20035;-90
2024/02/01 06:25:23;;;;;;;13.30;6.32;;;7.50;99.90;;;;;;5064653;28;20021;-89
2024/02/01 06:27:49;;;;;;;13.05;6.32;;;7.40;99.90;;;;;;5080899;28;20411;-88
2024/02/01 06:30:15;;;;;;;9.68;5.82;;;7.50;99.90;;;;;;5080566;28;20396;-89
2024/02/01 06:32:42;;;;;;;9.30;5.32;;;7.50;99.90;;;;;;5062268;28;20029;-90
2024/02/01 06:35:16;;;;;;;9.15;5.57;;;7.50;99.90;;;;;;5073999;28;20025;-92
2024/02/01 06:37:51;;;;;;;10.30;5.70;;;7.50;99.90;;;;;;5080644;28;20031;-88
2024/02/01 06:46:01;;;;;;;17.65;5.35;;;7.50;99.90;;;;;;5007791;28;20066;-89
2024/02/01 06:48:46;;;;;;;9.90;5.18;;;7.50;99.90;;;;;;5054135;28;20024;-92
2024/02/01 06:51:21;;;;;;;11.82;4.65;;;7.50;99.90;;;;;;5050403;28;20021;-91
2024/02/01 06:54:05;;;;;;;9.75;4.95;;;7.60;99.90;;;;;;5069179;28;20474;-91
2024/02/01 06:56:48;;;;;;;10.52;6.80;;;7.50;99.90;;;;;;5065597;28;20029;-89
2024/02/01 06:59:30;;;;;;;8.25;6.05;;;7.60;99.90;;;;;;5070259;28;20024;-91
2024/02/01 07:02:24;;;;;;;10.05;4.75;;;7.60;99.90;;;;;;5072413;28;20067;-90
2024/02/01 07:04:51;;;;;;;8.70;5.43;;;7.60;99.90;;;;;;5069616;28;20032;-90
2024/02/01 07:07:26;;;;;;;8.75;5.03;;;7.60;99.90;;;;;;5068682;28;20024;-92
2024/02/01 07:10:06;;;;;;;12.05;5.57;;;7.60;99.90;;;;;;5067677;28;20025;-91
2024/02/01 07:13:03;;;;;;;7.75;4.32;;;7.60;99.90;;;;;;5070876;28;20034;-91
2024/02/01 07:18:09;;;;;;;9.00;5.05;;;7.60;99.90;;;;;;5073472;28;20084;-89
2024/02/01 07:23:33;;;;;;;11.55;5.28;;;7.60;99.90;;;;;;5071207;28;20024;-90
2024/02/01 07:26:16;;;;;;;9.50;5.25;;;7.60;99.90;;;;;;5070120;28;20142;-91
2024/02/01 07:58:53;;;;;;;12.10;6.70;;;7.60;99.90;;;;;;5065122;28;20048;-92
2024/02/01 08:01:21;;;;;;;13.82;8.32;;;7.50;99.90;;;;;;5069048;28;20025;-91
2024/02/01 08:04:01;;;;;;;14.00;6.97;;;7.50;99.90;;;;;;5049498;28;20192;-91
2024/02/01 08:09:12;;;;;;;11.85;8.32;;;7.50;99.90;;;;;;5077205;28;20031;-92
2024/02/01 08:11:42;;;;;;;12.88;6.65;;;7.60;99.90;;;;;;5052958;28;20032;-91
2024/02/01 08:14:13;;;;;;;15.90;8.07;;;7.60;99.90;;;;;;5046863;28;20033;-92
2024/02/01 08:16:39;;;;;;;11.73;6.30;;;7.60;99.90;;;;;;5065373;28;20112;-91
2024/02/01 08:19:07;;;;;;;12.98;8.15;;;7.50;99.90;;;;;;5047853;28;20657;-91
2024/02/01 08:21:37;;;;;;;11.68;7.63;;;7.60;99.90;;;;;;5066760;28;20024;-91
2024/02/01 08:24:05;;;;;;;12.35;7.55;;;7.60;99.90;;;;;;5064795;28;20052;-93
2024/02/01 08:26:37;;;;;;;14.32;6.32;;;7.60;99.90;;;;;;5046928;28;20113;-90
2024/02/01 08:29:06;;;;;;;13.98;8.23;;;7.60;99.90;;;;;;5066267;28;20032;-92
2024/02/01 08:31:36;;;;;;;14.10;7.15;;;7.60;99.90;;;;;;5065806;28;20043;-91
2024/02/01 08:34:07;;;;;;;16.10;7.05;;;7.60;99.90;;;;;;5062938;28;20029;-89
2024/02/01 08:36:34;;;;;;;14.55;7.95;;;7.60;99.90;;;;;;5065763;28;20048;-90
2024/02/01 08:39:00;;;;;;;17.58;8.15;;;7.70;99.90;;;;;;5064715;28;20028;-90
2024/02/01 08:41:35;;;;;;;18.23;8.95;;;7.70;99.90;;;;;;5065262;28;20112;-90
2024/02/01 08:44:06;;;;;;;17.58;9.70;;;7.60;99.90;;;;;;5047334;28;20066;-91
2024/02/01 08:46:32;;;;;;;21.25;9.32;;;7.70;99.90;;;;;;5067420;28;20497;-89
2024/02/01 08:48:59;;;;;;;19.85;9.57;;;7.70;99.90;;;;;;5062732;28;20025;-91
2024/02/01 08:51:25;;;;;;;18.65;10.43;;;7.80;99.90;;;;;;5048926;28;20048;-91
2024/02/01 08:53:52;;;;;;;21.83;11.57;;;7.80;99.90;;;;;;5047349;28;20031;-93
2024/02/01 08:56:20;;;;;;;22.00;10.55;;;7.80;99.90;;;;;;5044960;28;20028;-91
2024/02/01 08:58:47;;;;;;;21.45;11.90;;;7.80;99.90;;;;;;5062390;28;20025;-91
2024/02/01 09:01:26;;;;;;;19.55;11.82;;;7.90;99.90;;;;;;5068545;28;20067;-93
2024/02/01 09:03:52;;;;;;;23.65;11.93;;;7.80;99.90;;;;;;5066851;28;20104;-91
2024/02/01 09:06:18;;;;;;;22.48;11.55;;;7.90;99.90;;;;;;5046350;28;20037;-89
2024/02/01 09:08:45;;;;;;;24.65;11.90;;;7.90;99.90;;;;;;5064361;28;20024;-89
2024/02/01 09:11:15;;;;;;;27.50;14.38;;;7.90;99.90;;;;;;5068301;28;20028;-87
2024/02/01 09:13:47;;;;;;;24.35;13.43;;;8.00;99.90;;;;;;5065845;28;20294;-87
2024/02/01 09:16:21;;;;;;;26.50;12.80;;;8.00;99.90;;;;;;5049499;28;20029;-87
2024/02/01 09:18:47;;;;;;;26.05;14.43;;;8.10;99.90;;;;;;5047146;28;20025;-87
2024/02/01 09:21:14;;;;;;;25.85;16.60;;;8.00;99.90;;;;;;5065972;28;20513;-90
2024/02/01 09:23:40;;;;;;;24.90;13.27;;;8.00;99.90;;;;;;5049207;28;20048;-94
2024/02/01 09:26:09;;;;;;;22.67;11.95;;;8.00;99.90;;;;;;5067804;28;20016;-89
2024/02/01 09:28:35;;;;;;;22.92;12.15;;;8.00;99.90;;;;;;5062647;28;20029;-92
2024/02/01 09:31:15;;;;;;;24.65;12.15;;;8.00;99.90;;;;;;5065613;28;20029;-91
2024/02/01 09:33:45;;;;;;;24.98;12.43;;;8.00;99.90;;;;;;5054000;28;20056;-90
2024/02/01 09:36:11;;;;;;;21.00;12.60;;;7.90;99.90;;;;;;5067857;28;20035;-92
2024/02/01 09:38:37;;;;;;;24.92;11.77;;;8.00;99.90;;;;;;5064222;28;20119;-90
2024/02/01 09:41:04;;;;;;;23.67;11.13;;;8.00;99.90;;;;;;5051729;28;20068;-91
2024/02/01 09:43:39;;;;;;;20.52;11.05;;;8.10;99.90;;;;;;5050104;28;20021;-91
2024/02/01 09:46:08;;;;;;;27.88;13.57;;;8.00;99.90;;;;;;5067984;28;20343;-89
2024/02/01 09:48:38;;;;;;;19.67;11.45;;;8.00;99.90;;;;;;5066789;28;20048;-91
2024/02/01 09:51:04;;;;;;;22.52;13.13;;;8.10;99.90;;;;;;5051976;28;20657;-91
2024/02/01 09:53:30;;;;;;;24.25;11.63;;;8.10;99.90;;;;;;5072658;28;20078;-90
2024/02/01 09:56:00;;;;;;;20.83;11.25;;;8.00;99.90;;;;;;5048440;28;20036;-92
2024/02/01 09:58:28;;;;;;;20.63;11.00;;;8.10;99.90;;;;;;5045488;28;20025;-92
2024/02/01 10:00:53;;;;;;;20.23;11.48;;;8.10;99.90;;;;;;5069477;28;20032;-91
2024/02/01 10:03:23;;;;;;;21.85;12.27;;;8.10;99.90;;;;;;5049400;28;20521;-93
2024/02/01 10:05:50;;;;;;;19.23;9.95;;;8.00;99.90;;;;;;5048483;28;20085;-90
2024/02/01 10:08:17;;;;;;;22.15;11.40;;;8.10;99.90;;;;;;5048054;28;20013;-91
2024/02/01 10:10:48;;;;;;;20.33;12.95;;;8.10;99.90;;;;;;5050421;28;20033;-93
2024/02/01 10:13:16;;;;;;;21.98;11.75;;;8.00;99.90;;;;;;5049636;28;20021;-90
2024/02/01 10:15:46;;;;;;;20.23;9.43;;;8.10;99.90;;;;;;5051972;28;20044;-92
2024/02/01 10:18:21;;;;;;;21.88;12.25;;;8.10;99.90;;;;;;5067583;28;20028;-91
2024/02/01 10:21:00;;;;;;;21.50;11.80;;;8.20;99.90;;;;;;5054589;28;20044;-91
2024/02/01 10:23:27;;;;;;;20.27;10.65;;;8.20;99.90;;;;;;5049283;28;20028;-92
2024/02/01 10:25:54;;;;;;;21.23;13.43;;;8.20;99.90;;;;;;5070311;28;20029;-90
2024/02/01 10:28:22;;;;;;;;;;;8.20;99.90;;;;;;5065576;28;20016;-91
2024/02/01 10:30:49;;;;;;;;;;;8.30;99.90;;;;;;5068268;28;20267;-91
2024/02/01 10:33:17;;;;;;;19.98;10.35;;;8.20;99.90;;;;;;5050141;28;19920;-93
2024/02/01 10:35:48;;;;;;;21.52;12.05;;;8.20;99.90;;;;;;5069518;28;20029;-90
2024/02/01 10:38:20;;;;;;;22.33;10.52;;;8.20;99.90;;;;;;5064622;28;20078;-92
2024/02/01 10:40:59;;;;;;;20.80;13.18;;;8.20;99.90;;;;;;5048112;28;20028;-90
2024/02/01 10:43:27;;;;;;;20.38;11.60;;;8.30;99.90;;;;;;5065041;28;20033;-90
2024/02/01 10:46:14;;;;;;;18.77;12.13;;;8.30;99.90;;;;;;5051910;28;20032;-93
2024/02/01 10:48:52;;;;;;;20.52;11.32;;;8.40;99.90;;;;;;5046762;28;20032;-90
2024/02/01 10:51:19;;;;;;;20.70;11.02;;;8.50;99.90;;;;;;5068070;28;20028;-90
2024/02/01 10:53:46;;;;;;;24.63;11.95;;;8.50;99.90;;;;;;5066683;28;20145;-88
2024/02/01 10:56:14;;;;;;;20.40;11.15;;;8.50;99.90;;;;;;5067638;28;20095;-89
2024/02/01 10:58:48;;;;;;;17.13;9.75;;;8.50;99.90;;;;;;5064345;28;20020;-91
2024/02/01 11:01:16;;;;;;;18.20;10.45;;;8.60;99.90;;;;;;5067807;28;20051;-91
2024/02/01 11:03:46;;;;;;;17.83;9.45;;;8.70;99.90;;;;;;5066039;28;20016;-90
2024/02/01 11:06:12;;;;;;;16.30;10.77;;;8.70;99.90;;;;;;5066062;28;20028;-90
2024/02/01 11:08:40;;;;;;;19.75;11.10;;;8.60;99.90;;;;;;5044977;28;20087;-92
2024/02/01 11:11:16;;;;;;;16.90;9.05;;;8.70;99.90;;;;;;5065829;28;20065;-93
2024/02/01 11:14:06;;;;;;;17.45;9.75;;;8.70;99.90;;;;;;5064735;28;20147;-92
2024/02/01 11:16:39;;;;;;;20.65;9.13;;;8.70;99.90;;;;;;5046496;28;20044;-92
2024/02/01 11:19:10;;;;;;;19.25;10.00;;;8.70;99.90;;;;;;5063391;28;20033;-91
2024/02/01 11:21:36;;;;;;;20.35;10.50;;;8.80;99.90;;;;;;5068556;28;20031;-89
2024/02/01 11:24:06;;;;;;;18.88;10.20;;;8.70;99.90;;;;;;5066059;28;20016;-90
2024/02/01 11:26:41;;;;;;;18.92;10.02;;;8.80;99.90;;;;;;5066790;28;20466;-92
2024/02/01 11:29:09;;;;;;;19.33;9.18;;;8.80;99.90;;;;;;5045949;28;20047;-93
2024/02/01 11:31:37;;;;;;;20.05;10.75;;;8.80;99.90;;;;;;5067980;28;20111;-92
2024/02/01 11:34:06;;;;;;;19.75;10.25;;;8.90;99.90;;;;;;5066410;28;20031;-92
2024/02/01 11:36:35;;;;;;;20.20;10.85;;;8.80;99.90;;;;;;5066939;28;20063;-90
2024/02/01 11:39:04;;;;;;;19.00;9.43;;;8.80;99.90;;;;;;5066589;28;20021;-92
2024/02/01 11:41:31;;;;;;;19.45;11.13;;;8.90;99.90;;;;;;5068901;28;20032;-88
2024/02/01 11:44:00;;;;;;;16.73;9.75;;;8.90;99.90;;;;;;5049400;28;20042;-91
2024/02/01 11:46:26;;;;;;;18.55;10.95;;;8.90;99.90;;;;;;5069783;28;20012;-95
2024/02/01 11:48:52;;;;;;;21.73;10.95;;;8.80;99.90;;;;;;5065128;28;20024;-91
2024/02/01 11:51:17;;;;;;;21.35;10.50;;;8.80;99.90;;;;;;5048782;28;20029;-91
2024/02/01 11:53:43;;;;;;;20.33;10.88;;;8.90;99.90;;;;;;5051495;28;20032;-93
2024/02/01 11:56:09;;;;;;;20.90;10.98;;;8.90;99.90;;;;;;5070156;28;20058;-91
2024/02/01 11:58:35;;;;;;;20.23;10.82;;;8.90;99.90;;;;;;5065116;28;20572;-93
2024/02/01 12:01:01;;;;;;;22.60;12.35;;;8.90;99.90;;;;;;5049011;28;20028;-92
2024/02/01 12:03:32;;;;;;;22.85;11.93;;;8.90;99.90;;;;;;5069086;28;20017;-92
2024/02/01 12:05:59;;;;;;;21.65;12.23;;;9.00;99.90;;;;;;5067075;28;21291;-93
2024/02/01 12:08:28;;;;;;;20.67;12.38;;;9.00;99.90;;;;;;5063488;28;20256;-92
2024/02/01 12:10:55;;;;;;;22.92;11.85;;;9.10;99.90;;;;;;5068863;28;20494;-92
2024/02/01 12:13:21;;;;;;;19.98;11.27;;;9.00;99.90;;;;;;5070550;28;20020;-89
2024/02/01 12:15:52;;;;;;;23.48;12.45;;;9.00;99.90;;;;;;5069121;28;20779;-92
2024/02/01 12:18:19;;;;;;;24.30;13.82;;;9.00;99.90;;;;;;5066822;28;20036;-92
2024/02/01 12:20:48;;;;;;;23.40;12.55;;;9.00;99.90;;;;;;5052841;28;20414;-93
2024/02/01 12:23:15;;;;;;;22.27;11.68;;;9.00;99.90;;;;;;5053311;28;20028;-90
2024/02/01 12:25:47;;;;;;;20.70;12.40;;;9.00;99.90;;;;;;5069531;28;20020;-91
2024/02/01 12:28:14;;;;;;;23.08;12.98;;;9.00;99.90;;;;;;5068500;28;20029;-89
2024/02/01 12:30:44;;;;;;;21.55;12.30;;;8.90;99.90;;;;;;5071903;28;20017;-90
2024/02/01 12:33:13;;;;;;;22.85;13.00;;;9.00;99.90;;;;;;5069253;28;20024;-90
2024/02/01 12:35:43;;;;;;;26.88;15.18;;;8.90;99.90;;;;;;5069377;28;20031;-91
2024/02/01 12:38:11;;;;;;;23.05;13.70;;;8.90;99.90;;;;;;5052618;28;20055;-92
2024/02/01 12:40:36;;;;;;;27.70;13.63;;;8.90;99.90;;;;;;5069591;28;20039;-92
2024/02/01 12:43:04;;;;;;;27.85;13.23;;;8.80;99.90;;;;;;5067555;28;20020;-94
2024/02/01 12:45:30;;;;;;;24.58;13.73;;;8.80;99.90;;;;;;5071142;28;20036;-93
2024/02/01 12:47:56;;;;;;;28.67;13.20;;;8.80;99.90;;;;;;5070555;28;20029;-94
2024/02/01 12:50:22;;;;;;;24.40;13.55;;;8.70;99.90;;;;;;5066841;28;20027;-89
2024/02/01 12:52:49;;;;;;;27.30;14.02;;;8.70;99.90;;;;;;5087866;28;20037;-95
2024/02/01 12:55:20;;;;;;;22.98;12.40;;;8.80;99.90;;;;;;5084391;28;20029;-93
2024/02/01 12:57:48;;;;;;;27.40;14.63;;;8.80;99.90;;;;;;5071116;28;20349;-91
2024/02/01 13:00:14;;;;;;;28.05;14.27;;;8.80;99.90;;;;;;5049456;28;20041;-94
2024/02/01 13:02:40;;;;;;;25.42;13.50;;;8.90;99.90;;;;;;5052919;28;20439;-91
2024/02/01 13:05:09;;;;;;;23.83;13.07;;;8.80;99.90;;;;;;5050180;28;20021;-94
2024/02/01 13:07:36;;;;;;;23.58;13.38;;;8.80;99.90;;;;;;5063916;28;20082;-92
2024/02/01 13:10:07;;;;;;;24.08;14.43;;;8.80;99.90;;;;;;5068472;28;20050;-91
2024/02/01 13:12:33;;;;;;;27.73;13.27;;;8.90;99.90;;;;;;5052613;28;20446;-92
2024/02/01 13:15:00;;;;;;;24.40;14.95;;;8.90;99.90;;;;;;5069527;28;20066;-92
2024/02/01 13:17:36;;;;;;;25.33;13.73;;;8.90;99.90;;;;;;5047264;28;20031;-92
2024/02/01 13:20:18;;;;;;;25.42;14.27;;;8.90;99.90;;;;;;5069083;28;20173;-92
2024/02/01 13:22:45;;;;;;;28.25;14.82;;;8.90;99.90;;;;;;5073413;28;20123;-96
2024/02/01 13:25:18;;;;;;;21.33;11.88;;;8.90;99.90;;;;;;5073629;28;20016;-92
2024/02/01 13:27:44;;;;;;;24.15;13.00;;;8.90;99.90;;;;;;5069386;28;20543;-91
2024/02/01 13:30:11;;;;;;;25.45;13.95;;;8.90;99.90;;;;;;5074753;28;20040;-93
2024/02/01 13:32:37;;;;;;;20.95;13.88;;;8.90;99.90;;;;;;5073744;28;20232;-94
2024/02/01 13:35:03;;;;;;;19.77;12.32;;;8.90;99.90;;;;;;5071597;28;20020;-92